createdAt,value
2022-12-18T00:01:34.635Z,100.00
2022-12-18T00:04:09.240Z,100.00
2022-12-18T00:06:36.938Z,100.00
2022-12-18T00:09:04.595Z,100.00
2022-12-18T00:11:32.697Z,100.00
2022-12-18T00:14:01.393Z,100.00
2022-12-18T00:16:31.338Z,100.00
2022-12-18T00:18:59.522Z,100.00
2022-12-18T00:21:28.834Z,100.00
2022-12-18T00:23:57.048Z,100.00
2022-12-18T00:26:27.575Z,100.00
2022-12-18T00:29:03.827Z,100.00
2022-12-18T00:31:34.230Z,100.00
2022-12-18T00:34:02.622Z,100.00
2022-12-18T00:36:32.736Z,100.00
2022-12-18T00:39:02.562Z,100.00
2022-12-18T00:42:06.916Z,100.00
2022-12-18T00:44:34.407Z,100.00
2022-12-18T00:47:01.941Z,100.00
2022-12-18T00:49:29.570Z,100.00
2022-12-18T00:51:57.069Z,100.00
2022-12-18T00:54:24.921Z,100.00
2022-12-18T00:56:52.480Z,100.00
2022-12-18T00:59:20.232Z,100.00
2022-12-18T01:01:48.778Z,100.00
2022-12-18T01:04:16.490Z,100.00
2022-12-18T01:06:46.850Z,100.00
2022-12-18T01:09:14.428Z,100.00
2022-12-18T01:11:42.009Z,100.00
2022-12-18T01:14:09.828Z,100.00
2022-12-18T01:16:38.881Z,100.00
2022-12-18T01:19:06.608Z,100.00
2022-12-18T01:21:34.833Z,100.00
2022-12-18T01:24:05.907Z,100.00
2022-12-18T01:26:33.699Z,100.00
2022-12-18T01:29:01.263Z,100.00
2022-12-18T01:31:33.099Z,100.00
2022-12-18T01:34:04.889Z,100.00
2022-12-18T01:36:34.780Z,100.00
2022-12-18T01:39:08.171Z,100.00
2022-12-18T01:41:54.997Z,100.00
2022-12-18T01:44:59.535Z,100.00
2022-12-18T01:47:49.667Z,100.00
2022-12-18T01:50:22.506Z,100.00
2022-12-18T01:52:54.089Z,100.00
2022-12-18T01:55:24.849Z,100.00
2022-12-18T01:57:56.629Z,100.00
2022-12-18T02:00:25.902Z,100.00
2022-12-18T02:02:54.618Z,100.00
2022-12-18T02:05:37.134Z,100.00
2022-12-18T02:08:13.755Z,100.00
2022-12-18T02:10:49.314Z,100.00
2022-12-18T02:13:44.400Z,100.00
2022-12-18T02:16:41.382Z,100.00
2022-12-18T02:19:45.791Z,100.00
2022-12-18T02:22:48.121Z,100.00
2022-12-18T02:25:25.642Z,100.00
2022-12-18T02:27:55.733Z,100.00
2022-12-18T02:30:24.086Z,100.00
2022-12-18T02:32:55.329Z,100.00
2022-12-18T02:35:29.634Z,100.00
2022-12-18T02:38:00.113Z,100.00
2022-12-18T02:40:31.647Z,100.00
2022-12-18T02:43:08.488Z,100.00
2022-12-18T02:45:35.935Z,100.00
2022-12-18T02:48:04.505Z,100.00
2022-12-18T02:50:42.847Z,100.00
2022-12-18T02:53:34.733Z,100.00
2022-12-18T02:56:16.667Z,100.00
2022-12-18T02:58:53.661Z,100.00
2022-12-18T03:02:08.444Z,100.00
2022-12-18T03:04:48.706Z,100.00
2022-12-18T03:07:28.532Z,100.00
2022-12-18T03:10:00.169Z,100.00
2022-12-18T03:12:39.202Z,100.00
2022-12-18T03:15:17.210Z,100.00
2022-12-18T03:17:57.372Z,100.00
2022-12-18T03:20:32.057Z,100.00
2022-12-18T03:23:07.643Z,100.00
2022-12-18T03:25:39.877Z,100.00
2022-12-18T03:28:11.498Z,100.00
2022-12-18T03:30:42.629Z,100.00
2022-12-18T03:33:18.857Z,100.00
2022-12-18T03:35:47.924Z,100.00
2022-12-18T03:38:15.568Z,100.00
2022-12-18T03:40:56.880Z,100.00
2022-12-18T03:43:35.830Z,100.00
2022-12-18T03:46:26.546Z,100.00
2022-12-18T03:49:07.537Z,100.00
2022-12-18T03:52:25.965Z,100.00
2022-12-18T03:54:56.794Z,100.00
2022-12-18T03:57:29.516Z,100.00
2022-12-18T04:00:02.712Z,100.00
2022-12-18T04:02:46.634Z,100.00
2022-12-18T04:05:21.445Z,100.00
2022-12-18T04:07:52.558Z,100.00
2022-12-18T04:10:20.332Z,100.00
2022-12-18T04:12:48.295Z,100.00
2022-12-18T04:15:16.876Z,100.00
2022-12-18T04:17:50.208Z,100.00
2022-12-18T04:20:21.068Z,100.00
2022-12-18T04:22:49.217Z,100.00
2022-12-18T04:25:16.853Z,100.00
2022-12-18T04:27:57.574Z,100.00
2022-12-18T04:30:25.314Z,100.00
2022-12-18T04:32:53.202Z,100.00
2022-12-18T04:35:21.654Z,100.00
2022-12-18T04:37:49.293Z,100.00
2022-12-18T04:40:17.196Z,100.00
2022-12-18T04:42:47.691Z,100.00
2022-12-18T04:45:15.248Z,100.00
2022-12-18T04:47:42.935Z,100.00
2022-12-18T04:50:10.553Z,100.00
2022-12-18T04:52:38.173Z,100.00
2022-12-18T04:55:06.221Z,100.00
2022-12-18T04:57:33.767Z,100.00
2022-12-18T05:00:01.454Z,100.00
2022-12-18T05:02:29.174Z,100.00
2022-12-18T05:04:56.806Z,100.00
2022-12-18T05:07:24.339Z,100.00
2022-12-18T05:09:51.898Z,100.00
2022-12-18T05:12:19.450Z,100.00
2022-12-18T05:14:46.982Z,100.00
2022-12-18T05:17:14.486Z,100.00
2022-12-18T05:19:42.036Z,100.00
2022-12-18T05:22:09.868Z,100.00
2022-12-18T05:24:37.518Z,100.00
2022-12-18T05:27:05.113Z,100.00
2022-12-18T05:29:32.644Z,100.00
2022-12-18T05:32:00.223Z,100.00
2022-12-18T05:34:27.729Z,100.00
2022-12-18T05:36:55.256Z,100.00
2022-12-18T05:39:22.816Z,100.00
2022-12-18T05:41:50.262Z,100.00
2022-12-18T05:44:17.967Z,100.00
2022-12-18T05:46:45.599Z,100.00
2022-12-18T05:49:13.127Z,100.00
2022-12-18T05:51:40.639Z,100.00
2022-12-18T05:54:08.890Z,100.00
2022-12-18T05:56:36.358Z,100.00
2022-12-18T05:59:03.927Z,100.00
2022-12-18T06:01:31.645Z,100.00
2022-12-18T06:04:00.189Z,100.00
2022-12-18T06:06:29.849Z,100.00
2022-12-18T06:08:58.139Z,100.00
2022-12-18T06:11:27.571Z,100.00
2022-12-18T06:13:59.018Z,100.00
2022-12-18T06:16:28.176Z,100.00
2022-12-18T06:19:02.967Z,100.00
2022-12-18T06:21:31.019Z,100.00
2022-12-18T06:23:59.894Z,100.00
2022-12-18T06:26:28.536Z,100.00
2022-12-18T06:28:57.126Z,100.00
2022-12-18T06:31:25.628Z,100.00
2022-12-18T06:33:53.115Z,100.00
2022-12-18T06:36:21.798Z,100.00
2022-12-18T06:38:49.424Z,100.00
2022-12-18T06:41:19.538Z,100.00
2022-12-18T06:43:50.157Z,100.00
2022-12-18T06:46:18.116Z,100.00
2022-12-18T06:48:49.850Z,100.00
2022-12-18T06:51:21.747Z,100.00
2022-12-18T06:53:50.250Z,100.00
2022-12-18T06:56:18.071Z,100.00
2022-12-18T06:58:45.737Z,100.00
2022-12-18T07:01:14.059Z,100.00
2022-12-18T07:03:43.159Z,100.00
2022-12-18T07:06:20.376Z,100.00
2022-12-18T07:08:48.839Z,100.00
2022-12-18T07:11:17.322Z,100.00
2022-12-18T07:13:45.080Z,100.00
2022-12-18T07:16:24.771Z,100.00
2022-12-18T07:18:55.877Z,100.00
2022-12-18T07:21:25.052Z,100.00
2022-12-18T07:23:53.197Z,100.00
2022-12-18T07:26:29.837Z,100.00
2022-12-18T07:28:58.889Z,100.00
2022-12-18T07:31:27.458Z,100.00
2022-12-18T07:33:56.417Z,100.00
2022-12-18T07:36:24.561Z,100.00
2022-12-18T07:38:53.719Z,100.00
2022-12-18T07:41:21.879Z,100.00
2022-12-18T07:43:49.450Z,100.00
2022-12-18T07:46:17.164Z,100.00
2022-12-18T07:48:49.292Z,100.00
2022-12-18T07:51:24.875Z,100.00
2022-12-18T07:53:52.787Z,100.00
2022-12-18T07:56:29.979Z,100.00
2022-12-18T07:58:58.731Z,100.00
2022-12-18T08:01:26.812Z,100.00
2022-12-18T08:03:54.803Z,100.00
2022-12-18T08:06:24.130Z,100.00
2022-12-18T08:08:54.873Z,100.00
2022-12-18T08:11:24.556Z,100.00
2022-12-18T08:13:52.655Z,100.00
2022-12-18T08:16:20.884Z,100.00
2022-12-18T08:18:49.555Z,100.00
2022-12-18T08:21:22.283Z,100.00
2022-12-18T08:23:51.766Z,100.00
2022-12-18T08:26:20.890Z,100.00
2022-12-18T08:28:49.206Z,100.00
2022-12-18T08:31:19.608Z,100.00
2022-12-18T08:33:50.583Z,100.00
2022-12-18T08:36:18.601Z,100.00
2022-12-18T08:38:47.181Z,100.00
2022-12-18T08:41:16.798Z,100.00
2022-12-18T08:44:03.091Z,100.00
2022-12-18T08:46:36.723Z,100.00
2022-12-18T08:49:05.004Z,100.00
2022-12-18T08:51:33.440Z,100.00
2022-12-18T08:54:01.317Z,100.00
2022-12-18T08:56:29.395Z,100.00
2022-12-18T08:58:57.606Z,100.00
2022-12-18T09:01:25.643Z,100.00
2022-12-18T09:03:53.400Z,100.00
2022-12-18T09:06:22.802Z,100.00
2022-12-18T09:08:50.702Z,100.00
2022-12-18T09:11:26.079Z,100.00
2022-12-18T09:13:55.009Z,100.00
2022-12-18T09:16:28.656Z,100.00
2022-12-18T09:19:03.167Z,100.00
2022-12-18T09:21:42.179Z,100.00
2022-12-18T09:24:15.700Z,100.00
2022-12-18T09:27:01.817Z,100.00
2022-12-18T09:29:29.754Z,100.00
2022-12-18T09:31:57.552Z,100.00
2022-12-18T09:34:25.154Z,100.00
2022-12-18T09:36:52.717Z,100.00
2022-12-18T09:39:21.860Z,100.00
2022-12-18T09:41:56.971Z,100.00
2022-12-18T09:44:29.286Z,100.00
2022-12-18T09:47:29.382Z,100.00
2022-12-18T09:50:05.009Z,100.00
2022-12-18T09:52:40.829Z,100.00
2022-12-18T09:55:26.264Z,100.00
2022-12-18T09:58:05.921Z,99.68
2022-12-18T10:00:46.295Z,100.00
2022-12-18T10:03:16.755Z,100.00
2022-12-18T10:06:07.022Z,98.62
2022-12-18T10:08:46.613Z,100.00
2022-12-18T10:11:16.997Z,95.69
2022-12-18T10:14:02.365Z,99.34
2022-12-18T10:17:03.427Z,99.47
2022-12-18T10:19:40.510Z,98.00
2022-12-18T10:22:37.200Z,98.21
2022-12-18T10:25:46.604Z,97.31
2022-12-18T10:28:16.028Z,98.81
2022-12-18T10:30:44.425Z,97.63
2022-12-18T10:33:24.421Z,95.21
2022-12-18T10:35:52.804Z,96.56
2022-12-18T10:38:20.378Z,100.00
2022-12-18T10:40:55.959Z,100.00
2022-12-18T10:43:25.365Z,100.00
2022-12-18T10:46:21.180Z,98.05
2022-12-18T10:48:48.747Z,96.04
2022-12-18T10:51:31.681Z,92.00
2022-12-18T10:54:22.601Z,94.92
2022-12-18T10:56:50.360Z,89.94
2022-12-18T10:59:19.617Z,93.08
2022-12-18T11:01:56.126Z,94.40
2022-12-18T11:04:26.439Z,91.30
2022-12-18T11:06:58.685Z,90.44
2022-12-18T11:09:32.893Z,93.44
2022-12-18T11:12:03.628Z,91.11
2022-12-18T11:14:34.868Z,88.41
2022-12-18T11:17:24.823Z,86.46
2022-12-18T11:19:58.353Z,91.08
2022-12-18T11:22:31.975Z,86.60
2022-12-18T11:25:34.627Z,88.26
2022-12-18T11:28:05.812Z,85.80
2022-12-18T11:30:37.576Z,88.44
2022-12-18T11:33:20.600Z,89.17
2022-12-18T11:36:00.578Z,91.15
2022-12-18T11:38:41.341Z,89.80
2022-12-18T11:41:23.035Z,89.95
2022-12-18T11:43:57.012Z,92.62
2022-12-18T11:46:33.480Z,93.00
2022-12-18T11:49:35.371Z,91.01
2022-12-18T11:52:10.980Z,90.83
2022-12-18T11:54:38.543Z,92.75
2022-12-18T11:57:20.565Z,90.66
2022-12-18T11:59:47.971Z,94.59
2022-12-18T12:02:25.820Z,94.43
2022-12-18T12:05:21.035Z,95.05
2022-12-18T12:07:53.971Z,96.85
2022-12-18T12:10:30.137Z,95.09
2022-12-18T12:13:15.474Z,95.53
2022-12-18T12:16:11.334Z,96.67
2022-12-18T12:19:03.251Z,93.88
2022-12-18T12:21:46.966Z,95.06
2022-12-18T12:24:48.226Z,95.33
2022-12-18T12:27:50.757Z,95.06
2022-12-18T12:30:37.477Z,96.95
2022-12-18T12:33:13.814Z,95.34
2022-12-18T12:35:48.100Z,95.70
2022-12-18T12:38:25.302Z,93.48
2022-12-18T12:41:02.789Z,94.34
2022-12-18T12:43:33.697Z,95.85
2022-12-18T12:46:09.925Z,97.12
2022-12-18T12:48:47.582Z,97.57
2022-12-18T12:51:24.944Z,96.78
2022-12-18T12:53:55.467Z,97.99
2022-12-18T12:56:25.613Z,95.73
2022-12-18T12:59:14.852Z,96.87
2022-12-18T13:01:50.141Z,96.85
2022-12-18T13:04:17.697Z,97.68
2022-12-18T13:06:57.384Z,98.06
2022-12-18T13:09:25.156Z,97.43
2022-12-18T13:12:10.998Z,98.13
2022-12-18T13:14:41.098Z,100.00
2022-12-18T13:17:20.939Z,99.67
2022-12-18T13:20:04.236Z,97.71
2022-12-18T13:22:37.837Z,98.27
2022-12-18T13:25:33.007Z,98.54
2022-12-18T13:28:06.365Z,98.23
2022-12-18T13:30:33.953Z,95.47
2022-12-18T13:33:17.599Z,94.09
2022-12-18T13:35:47.903Z,93.32
2022-12-18T13:38:31.998Z,92.51
2022-12-18T13:41:01.523Z,93.51
2022-12-18T13:43:47.994Z,92.24
2022-12-18T13:46:20.758Z,92.23
2022-12-18T13:49:02.426Z,93.46
2022-12-18T13:51:32.443Z,93.04
2022-12-18T13:54:28.623Z,92.84
2022-12-18T13:56:56.135Z,92.84
2022-12-18T13:59:25.308Z,91.02
2022-12-18T14:02:02.779Z,90.56
2022-12-18T14:04:33.955Z,92.18
2022-12-18T14:07:18.004Z,89.71
2022-12-18T14:09:50.564Z,90.49
2022-12-18T14:12:43.952Z,90.01
2022-12-18T14:15:28.004Z,90.98
2022-12-18T14:18:00.089Z,92.90
2022-12-18T14:20:30.584Z,91.90
2022-12-18T14:23:01.201Z,92.91
2022-12-18T14:25:31.412Z,93.32
2022-12-18T14:28:08.719Z,93.46
2022-12-18T14:30:39.447Z,93.73
2022-12-18T14:33:09.589Z,93.08
2022-12-18T14:35:42.438Z,95.11
2022-12-18T14:38:26.219Z,96.44
2022-12-18T14:40:59.717Z,95.53
2022-12-18T14:43:29.545Z,98.39
2022-12-18T14:45:57.923Z,100.00
2022-12-18T14:48:43.497Z,100.00
2022-12-18T14:51:13.582Z,100.00
2022-12-18T14:53:50.669Z,100.00
2022-12-18T14:56:27.264Z,100.00
2022-12-18T14:58:56.617Z,100.00
2022-12-18T15:01:28.457Z,100.00
2022-12-18T15:03:58.031Z,100.00
2022-12-18T15:06:33.817Z,100.00
2022-12-18T15:09:04.774Z,100.00
2022-12-18T15:11:45.469Z,100.00
2022-12-18T15:14:39.640Z,100.00
2022-12-18T15:17:19.754Z,100.00
2022-12-18T15:19:49.286Z,100.00
2022-12-18T15:22:28.831Z,100.00
2022-12-18T15:24:58.535Z,100.00
2022-12-18T15:27:35.859Z,100.00
2022-12-18T15:30:19.583Z,100.00
2022-12-18T15:32:47.484Z,100.00
2022-12-18T15:35:23.372Z,100.00
2022-12-18T15:37:52.501Z,100.00
2022-12-18T15:40:23.580Z,100.00
2022-12-18T15:43:13.835Z,100.00
2022-12-18T15:45:41.444Z,100.00
2022-12-18T15:48:23.027Z,100.00
2022-12-18T15:50:57.713Z,100.00
2022-12-18T15:53:29.168Z,100.00
2022-12-18T15:56:14.844Z,100.00
2022-12-18T15:58:42.364Z,100.00
2022-12-18T16:01:11.773Z,100.00
2022-12-18T16:03:39.927Z,100.00
2022-12-18T16:06:07.801Z,100.00
2022-12-18T16:08:36.070Z,100.00
2022-12-18T16:11:05.149Z,100.00
2022-12-18T16:13:32.545Z,100.00
2022-12-18T16:16:00.453Z,100.00
2022-12-18T16:18:28.002Z,100.00
2022-12-18T16:20:55.390Z,100.00
2022-12-18T16:23:22.794Z,100.00
2022-12-18T16:25:51.142Z,100.00
2022-12-18T16:28:18.629Z,100.00
2022-12-18T16:30:46.054Z,100.00
2022-12-18T16:33:13.573Z,100.00
2022-12-18T16:35:41.245Z,100.00
2022-12-18T16:38:10.216Z,100.00
2022-12-18T16:40:59.768Z,100.00
2022-12-18T16:43:29.483Z,100.00
2022-12-18T16:45:59.961Z,100.00
2022-12-18T16:48:27.462Z,100.00
2022-12-18T16:51:02.705Z,100.00
2022-12-18T16:53:33.027Z,100.00
2022-12-18T16:56:00.702Z,100.00
2022-12-18T16:58:29.231Z,100.00
2022-12-18T17:00:56.754Z,100.00
2022-12-18T17:03:24.350Z,100.00
2022-12-18T17:05:53.349Z,100.00
2022-12-18T17:08:20.845Z,100.00
2022-12-18T17:10:48.286Z,100.00
2022-12-18T17:13:15.757Z,100.00
2022-12-18T17:15:43.389Z,100.00
2022-12-18T17:18:11.511Z,100.00
2022-12-18T17:20:39.877Z,100.00
2022-12-18T17:23:07.369Z,100.00
2022-12-18T17:25:34.810Z,100.00
2022-12-18T17:28:02.400Z,100.00
2022-12-18T17:30:29.839Z,100.00
2022-12-18T17:32:59.374Z,100.00
2022-12-18T17:35:26.778Z,100.00
2022-12-18T17:37:59.262Z,100.00
2022-12-18T17:40:26.802Z,100.00
2022-12-18T17:42:56.414Z,100.00
2022-12-18T17:45:23.811Z,100.00
2022-12-18T17:47:55.419Z,100.00
2022-12-18T17:50:25.729Z,100.00
2022-12-18T17:52:56.931Z,100.00
2022-12-18T17:55:24.981Z,100.00
2022-12-18T17:57:52.540Z,100.00
2022-12-18T18:00:20.416Z,100.00
2022-12-18T18:02:48.143Z,100.00
2022-12-18T18:05:15.870Z,100.00
2022-12-18T18:07:45.572Z,100.00
2022-12-18T18:11:27.501Z,100.00
2022-12-18T18:14:00.746Z,100.00
2022-12-18T18:16:39.901Z,100.00
2022-12-18T18:19:11.045Z,100.00
2022-12-18T18:21:45.768Z,100.00
2022-12-18T18:24:15.502Z,100.00
2022-12-18T18:27:09.698Z,100.00
2022-12-18T18:29:37.090Z,100.00
2022-12-18T18:32:04.882Z,100.00
2022-12-18T18:34:32.873Z,100.00
2022-12-18T18:37:01.739Z,100.00
2022-12-18T18:39:29.619Z,100.00
2022-12-18T18:41:57.137Z,100.00
2022-12-18T18:44:26.754Z,100.00
2022-12-18T18:46:58.098Z,100.00
2022-12-18T18:49:28.356Z,100.00
2022-12-18T18:51:57.333Z,100.00
2022-12-18T18:54:25.800Z,100.00
2022-12-18T18:57:19.566Z,100.00
2022-12-18T18:59:41.520Z,100.00
2022-12-18T19:02:16.103Z,100.00
2022-12-18T19:04:46.156Z,100.00
2022-12-18T19:07:23.868Z,100.00
2022-12-18T19:10:04.838Z,100.00
2022-12-18T19:12:52.559Z,100.00
2022-12-18T19:15:20.152Z,100.00
2022-12-18T19:17:47.911Z,100.00
2022-12-18T19:20:18.342Z,100.00
2022-12-18T19:22:54.356Z,100.00
2022-12-18T19:25:38.562Z,100.00
2022-12-18T19:28:21.174Z,100.00
2022-12-18T19:30:50.825Z,100.00
2022-12-18T19:36:28.373Z,100.00
2022-12-18T19:38:59.101Z,100.00
2022-12-18T19:41:29.106Z,100.00
2022-12-18T19:43:58.950Z,100.00
2022-12-18T19:46:26.492Z,100.00
2022-12-18T19:48:53.984Z,100.00
2022-12-18T19:51:24.394Z,100.00
2022-12-18T19:53:58.212Z,100.00
2022-12-18T19:56:28.887Z,100.00
2022-12-18T19:58:56.494Z,100.00
2022-12-18T20:01:25.502Z,100.00
2022-12-18T20:03:55.340Z,100.00
2022-12-18T20:06:26.465Z,100.00
2022-12-18T20:09:00.876Z,100.00
2022-12-18T20:11:32.102Z,100.00
2022-12-18T20:14:03.438Z,100.00
2022-12-18T20:16:30.945Z,100.00
2022-12-18T20:18:59.053Z,100.00
2022-12-18T20:21:26.758Z,100.00
2022-12-18T20:23:55.848Z,100.00
2022-12-18T20:26:24.069Z,100.00
2022-12-18T20:28:51.826Z,100.00
2022-12-18T20:31:19.573Z,100.00
2022-12-18T20:33:48.689Z,100.00
2022-12-18T20:36:24.628Z,100.00
2022-12-18T20:38:57.136Z,100.00
2022-12-18T20:41:51.164Z,100.00
2022-12-18T20:44:22.547Z,100.00
2022-12-18T20:46:54.048Z,100.00
2022-12-18T20:49:22.172Z,100.00
2022-12-18T20:52:30.315Z,100.00
2022-12-18T20:54:58.951Z,100.00
2022-12-18T20:57:31.147Z,100.00
2022-12-18T21:00:03.665Z,100.00
2022-12-18T21:02:32.112Z,100.00
2022-12-18T21:05:00.882Z,100.00
2022-12-18T21:07:28.507Z,100.00
2022-12-18T21:09:57.227Z,100.00
2022-12-18T21:12:41.670Z,100.00
2022-12-18T21:15:15.902Z,100.00
2022-12-18T21:17:45.095Z,100.00
2022-12-18T21:20:17.865Z,100.00
2022-12-18T21:22:47.139Z,100.00
2022-12-18T21:25:16.509Z,100.00
2022-12-18T21:27:44.168Z,100.00
2022-12-18T21:30:12.144Z,100.00
2022-12-18T21:32:39.980Z,100.00
2022-12-18T21:35:07.968Z,100.00
2022-12-18T21:37:36.866Z,100.00
2022-12-18T21:40:06.422Z,100.00
2022-12-18T21:42:52.995Z,100.00
2022-12-18T21:45:20.675Z,100.00
2022-12-18T21:47:48.314Z,100.00
2022-12-18T21:50:16.102Z,100.00
2022-12-18T21:52:43.783Z,100.00
2022-12-18T21:55:11.477Z,100.00
2022-12-18T21:57:39.556Z,100.00
2022-12-18T22:00:25.296Z,100.00
2022-12-18T22:03:18.895Z,100.00
2022-12-18T22:05:46.955Z,100.00
2022-12-18T22:08:18.211Z,100.00
2022-12-18T22:10:45.823Z,100.00
2022-12-18T22:13:13.804Z,100.00
2022-12-18T22:15:41.520Z,100.00
2022-12-18T22:18:11.728Z,100.00
2022-12-18T22:20:39.493Z,100.00
2022-12-18T22:23:09.202Z,100.00
2022-12-18T22:25:39.796Z,100.00
2022-12-18T22:28:26.396Z,100.00
2022-12-18T22:30:59.664Z,100.00
2022-12-18T22:33:27.870Z,100.00
2022-12-18T22:35:55.545Z,100.00
2022-12-18T22:38:23.153Z,100.00
2022-12-18T22:40:50.746Z,100.00
2022-12-18T22:43:18.523Z,100.00
2022-12-18T22:45:47.485Z,100.00
2022-12-18T22:48:15.399Z,100.00
2022-12-18T22:50:44.185Z,100.00
2022-12-18T22:53:11.774Z,100.00
2022-12-18T22:55:39.961Z,100.00
2022-12-18T22:58:08.215Z,100.00
2022-12-18T23:00:35.917Z,100.00
2022-12-18T23:03:03.994Z,100.00
2022-12-18T23:05:34.928Z,100.00
2022-12-18T23:08:02.644Z,100.00
2022-12-18T23:10:51.299Z,100.00
2022-12-18T23:13:18.916Z,100.00
2022-12-18T23:15:47.467Z,100.00
2022-12-18T23:18:15.435Z,100.00
2022-12-18T23:20:46.445Z,100.00
2022-12-18T23:23:15.171Z,100.00
2022-12-18T23:25:44.090Z,100.00
2022-12-18T23:28:11.743Z,100.00
2022-12-18T23:30:41.460Z,100.00
2022-12-18T23:33:09.097Z,100.00
2022-12-18T23:35:37.843Z,100.00
2022-12-18T23:38:05.486Z,100.00
2022-12-18T23:40:33.134Z,100.00
2022-12-18T23:43:01.017Z,100.00
2022-12-18T23:45:28.786Z,100.00
2022-12-18T23:47:57.511Z,100.00
2022-12-18T23:50:29.142Z,100.00
2022-12-18T23:53:04.778Z,100.00
2022-12-18T23:55:38.783Z,100.00
2022-12-18T23:58:17.015Z,100.00
